Jamaica, NY

5:43 AM EDT on May 24, 2016 (GMT -0400)
Addisleigh Park | | Change Station

Elev 36 ft 40.70 °N, 73.77 °W | Updated 6 seconds ago

Rain
Rain
61.7 °F
Feels Like 61.7 °F
N
0.4
Wind Variable Wind from ENE
Gusts 2.5 mph

Today
High -- | Low -- °F
--% Chance of Precip.
Yesterday
High -- | Low -- °F
Precip. -- in
Pressure 29.87 in
Visibility 8.0 miles
Clouds Overcast 6000 ft
Dew Point 61 °F
Humidity 98%
Rainfall 0.11 in
Snow Depth Not available.
5:30 AM 8:14 PM
Waning Gibbous, 94% visible
METAR KJFK 240851Z 27009KT 8SM RA OVC060 16/14 A2987 RMK AO2 SLP113 P0011 60021 T01560139 56014 $
Pressure 29.87 in
Visibility 8.0 miles
Clouds Overcast 6000 ft
Dew Point 61 °F
Humidity 98%
Rainfall 0.11 in
Snow Depth Not available.
5:30 AM 8:14 PM
Waning Gibbous, 94% visible
METAR KJFK 240851Z 27009KT 8SM RA OVC060 16/14 A2987 RMK AO2 SLP113 P0011 60021 T01560139 56014 $

10-Day Weather Forecast

Almanac

Astronomy

May. 24, 2016 Rise Set
Actual Time
Civil Twilight
Nautical Twilight
Astronomical Twilight
Moon
Length of Visible Light
Length of Day
Tomorrow will be .
, % of the Moon is Illuminated

Today's Extremes

State Highs State Lows

Community

WunderPhotos

Upload Photos

1,913,511 photos uploaded!

WunderBlog® & News

Nearby

Air Quality

  Air Quality AQ Index Pollutant
Not available.

Snow Depth

Station Depth Elevation

Earthquake Activity

City Distance Mag. Time & Date
Minimum magnitude displayed is 2.5.

Coastal Water Temperatures

Place Temperature

Stations

Nearby Weather Stations

Station Location Temp. Windchill Dew Point Humidity Wind Precip. Elev Updated Type
                   

Watches & Warnings

There are currently no watches in effect.